Oneida, New York
Current Conditions -  °F | °C
As of 1:53 AM on Tuesday 21 Oct 2014 (Local Time) from KRME Reporting Station
Overcast Overcast  
Wind Chill: 47°   Ceiling: 5000
Heat Index: 47°   Visibility: 10mi
Dew Point: 44°   Wind: 0mph
Humidity: 90%   Direction: NA
Pressure: 29.89"   Gusts: NA
Location:  43.1°N, 75.65°W
Report Text: KRME 210553Z AUTO 00000KT 10SM OVC050 08/07 A2989 RMK AO2 RAE0455 SLP121 P0000 60001 T00830067 10106 20083 58004
Loading
Personal Weather Stations






























Interactive Weather Map
Tropical Storm Tracking
New forecast layout! Learn more

10-Day Weather Forecast

Advertisements
Track Severe Weather on mobile